sensor_id;sensor_type;location;lat;lon;timestamp;P1;durP1;ratioP1;P2;durP2;ratioP2
75356;SDS011;63946;51.986;5.930;2024-02-28T13:11:05;30.85;;;17.67;;
75356;SDS011;63946;51.986;5.930;2024-02-28T13:16:50;30.52;;;18.35;;
75356;SDS011;63946;51.986;5.930;2024-02-28T13:19:24;28.83;;;17.13;;
75356;SDS011;63946;51.986;5.930;2024-02-28T13:22:26;27.95;;;16.60;;
75356;SDS011;63946;51.986;5.930;2024-02-28T13:25:34;26.17;;;16.88;;
75356;SDS011;63946;51.986;5.930;2024-02-28T13:31:29;30.45;;;17.02;;
75356;SDS011;63946;51.986;5.930;2024-02-28T13:34:27;29.08;;;17.80;;
75356;SDS011;63946;51.986;5.930;2024-02-28T13:37:12;32.63;;;18.80;;
75356;SDS011;63946;51.986;5.930;2024-02-28T13:39:45;27.02;;;16.50;;
75356;SDS011;63946;51.986;5.930;2024-02-28T13:43:09;25.42;;;16.65;;
75356;SDS011;63946;51.986;5.930;2024-02-28T13:46:04;27.75;;;16.67;;
75356;SDS011;63946;51.986;5.930;2024-02-28T13:49:33;27.98;;;17.85;;
75356;SDS011;63946;51.986;5.930;2024-02-28T15:31:49;25.02;;;13.85;;
75356;SDS011;63946;51.986;5.930;2024-02-28T15:34:48;30.33;;;17.83;;
75356;SDS011;63946;51.986;5.930;2024-02-28T15:41:40;28.45;;;16.40;;
75356;SDS011;63946;51.986;5.930;2024-02-28T15:52:21;27.23;;;15.70;;
75356;SDS011;63946;51.986;5.930;2024-02-28T15:58:00;28.65;;;14.88;;
75356;SDS011;63946;51.986;5.930;2024-02-28T16:01:14;29.92;;;15.57;;
75356;SDS011;63946;51.986;5.930;2024-02-28T16:04:26;25.67;;;15.05;;
75356;SDS011;63946;51.986;5.930;2024-02-28T16:11:10;26.55;;;13.65;;
75356;SDS011;63946;51.986;5.930;2024-02-28T16:29:19;19.27;;;11.80;;
75356;SDS011;63946;51.986;5.930;2024-02-28T16:39:51;17.90;;;10.70;;
75356;SDS011;63946;51.986;5.930;2024-02-28T16:43:37;16.70;;;10.18;;
75356;SDS011;63946;51.986;5.930;2024-02-28T16:47:18;17.83;;;10.25;;
75356;SDS011;63946;51.986;5.930;2024-02-28T16:50:41;14.90;;;9.88;;
75356;SDS011;63946;51.986;5.930;2024-02-28T16:54:06;17.42;;;9.70;;
75356;SDS011;63946;51.986;5.930;2024-02-28T17:00:39;17.38;;;9.82;;
75356;SDS011;63946;51.986;5.930;2024-02-28T17:07:33;17.13;;;9.98;;
75356;SDS011;63946;51.986;5.930;2024-02-28T17:10:31;16.20;;;9.75;;
75356;SDS011;63946;51.986;5.930;2024-02-28T17:17:25;14.68;;;9.02;;
75356;SDS011;63946;51.986;5.930;2024-02-28T17:20:17;14.73;;;9.15;;
75356;SDS011;63946;51.986;5.930;2024-02-28T17:23:19;15.05;;;10.23;;
75356;SDS011;63946;51.986;5.930;2024-02-28T17:29:35;16.10;;;9.18;;
75356;SDS011;63946;51.986;5.930;2024-02-28T17:51:14;13.95;;;7.70;;
75356;SDS011;63946;51.986;5.930;2024-02-28T17:55:00;14.02;;;8.05;;
75356;SDS011;63946;51.986;5.930;2024-02-28T17:58:09;13.75;;;7.85;;
75356;SDS011;63946;51.986;5.930;2024-02-28T18:04:35;11.30;;;7.50;;
75356;SDS011;63946;51.986;5.930;2024-02-28T18:26:15;18.70;;;10.43;;
75356;SDS011;63946;51.986;5.930;2024-02-28T18:40:06;12.05;;;6.57;;
75356;SDS011;63946;51.986;5.930;2024-02-28T18:43:52;15.15;;;8.43;;
75356;SDS011;63946;51.986;5.930;2024-02-28T18:47:19;14.05;;;8.00;;
75356;SDS011;63946;51.986;5.930;2024-02-28T18:54:12;12.82;;;7.90;;
75356;SDS011;63946;51.986;5.930;2024-02-28T19:06:42;9.18;;;6.03;;
75356;SDS011;63946;51.986;5.930;2024-02-28T19:09:44;13.30;;;6.88;;
75356;SDS011;63946;51.986;5.930;2024-02-28T19:13:01;10.63;;;6.18;;
75356;SDS011;63946;51.986;5.930;2024-02-28T19:19:23;11.05;;;5.82;;
75356;SDS011;63946;51.986;5.930;2024-02-28T19:44:14;7.10;;;4.88;;
75356;SDS011;63946;51.986;5.930;2024-02-28T19:58:35;7.80;;;4.50;;
75356;SDS011;63946;51.986;5.930;2024-02-28T20:05:17;7.15;;;5.18;;
75356;SDS011;63946;51.986;5.930;2024-02-28T20:08:13;8.57;;;4.90;;
75356;SDS011;63946;51.986;5.930;2024-02-28T20:11:01;8.65;;;5.28;;
75356;SDS011;63946;51.986;5.930;2024-02-28T20:14:08;9.35;;;5.47;;
75356;SDS011;63946;51.986;5.930;2024-02-28T20:17:17;7.50;;;5.03;;
75356;SDS011;63946;51.986;5.930;2024-02-28T20:34:03;6.63;;;4.97;;
75356;SDS011;63946;51.986;5.930;2024-02-28T20:37:36;8.50;;;5.35;;
75356;SDS011;63946;51.986;5.930;2024-02-28T21:03:15;7.07;;;4.95;;
75356;SDS011;63946;51.986;5.930;2024-02-28T21:10:39;8.27;;;5.53;;
75356;SDS011;63946;51.986;5.930;2024-02-28T21:14:41;8.25;;;6.20;;
75356;SDS011;63946;51.986;5.930;2024-02-28T21:17:22;8.77;;;5.32;;
75356;SDS011;63946;51.986;5.930;2024-02-28T21:24:56;9.02;;;5.38;;
75356;SDS011;63946;51.986;5.930;2024-02-28T21:30:56;10.48;;;6.63;;
75356;SDS011;63946;51.986;5.930;2024-02-28T21:33:33;8.73;;;6.20;;
75356;SDS011;63946;51.986;5.930;2024-02-28T21:39:00;7.10;;;5.15;;
75356;SDS011;63946;51.986;5.930;2024-02-28T21:41:49;8.20;;;5.93;;
75356;SDS011;63946;51.986;5.930;2024-02-28T21:47:15;8.15;;;4.95;;
75356;SDS011;63946;51.986;5.930;2024-02-28T21:50:10;7.88;;;5.93;;
75356;SDS011;63946;51.986;5.930;2024-02-28T21:52:48;7.93;;;6.13;;
75356;SDS011;63946;51.986;5.930;2024-02-28T21:55:37;8.07;;;5.82;;
75356;SDS011;63946;51.986;5.930;2024-02-28T21:58:19;8.77;;;6.63;;
75356;SDS011;63946;51.986;5.930;2024-02-28T22:01:05;9.80;;;6.20;;
75356;SDS011;63946;51.986;5.930;2024-02-28T22:04:34;10.07;;;6.85;;
75356;SDS011;63946;51.986;5.930;2024-02-28T22:07:14;9.73;;;6.15;;
75356;SDS011;63946;51.986;5.930;2024-02-28T22:09:46;13.23;;;7.35;;
75356;SDS011;63946;51.986;5.930;2024-02-28T22:12:18;8.18;;;6.18;;
75356;SDS011;63946;51.986;5.930;2024-02-28T22:14:52;11.52;;;6.22;;
75356;SDS011;63946;51.986;5.930;2024-02-28T22:17:32;9.05;;;6.05;;
75356;SDS011;63946;51.986;5.930;2024-02-28T22:20:03;13.07;;;6.93;;
75356;SDS011;63946;51.986;5.930;2024-02-28T22:26:35;9.07;;;6.55;;
75356;SDS011;63946;51.986;5.930;2024-02-28T22:29:07;8.40;;;6.18;;
75356;SDS011;63946;51.986;5.930;2024-02-28T22:31:39;9.70;;;6.60;;
75356;SDS011;63946;51.986;5.930;2024-02-28T22:34:11;9.32;;;6.72;;
75356;SDS011;63946;51.986;5.930;2024-02-28T22:36:44;11.68;;;6.38;;
75356;SDS011;63946;51.986;5.930;2024-02-28T22:39:14;10.38;;;6.80;;
75356;SDS011;63946;51.986;5.930;2024-02-28T22:41:45;9.90;;;6.68;;
75356;SDS011;63946;51.986;5.930;2024-02-28T22:44:19;10.00;;;6.25;;
75356;SDS011;63946;51.986;5.930;2024-02-28T22:46:48;9.43;;;6.13;;
75356;SDS011;63946;51.986;5.930;2024-02-28T22:49:25;13.05;;;7.60;;
75356;SDS011;63946;51.986;5.930;2024-02-28T22:51:55;9.75;;;6.85;;
75356;SDS011;63946;51.986;5.930;2024-02-28T22:54:26;13.70;;;6.40;;
75356;SDS011;63946;51.986;5.930;2024-02-28T22:56:55;8.77;;;6.10;;
75356;SDS011;63946;51.986;5.930;2024-02-28T22:59:30;10.48;;;6.38;;
75356;SDS011;63946;51.986;5.930;2024-02-28T23:02:07;9.07;;;5.88;;
75356;SDS011;63946;51.986;5.930;2024-02-28T23:04:41;10.23;;;7.55;;
75356;SDS011;63946;51.986;5.930;2024-02-28T23:07:16;12.30;;;7.82;;
75356;SDS011;63946;51.986;5.930;2024-02-28T23:09:48;8.93;;;6.28;;
75356;SDS011;63946;51.986;5.930;2024-02-28T23:12:20;11.95;;;6.88;;
75356;SDS011;63946;51.986;5.930;2024-02-28T23:14:52;9.68;;;7.00;;
75356;SDS011;63946;51.986;5.930;2024-02-28T23:17:28;11.13;;;6.45;;
75356;SDS011;63946;51.986;5.930;2024-02-28T23:20:00;11.70;;;7.32;;
75356;SDS011;63946;51.986;5.930;2024-02-28T23:22:29;10.43;;;6.53;;
75356;SDS011;63946;51.986;5.930;2024-02-28T23:24:58;10.65;;;7.22;;
75356;SDS011;63946;51.986;5.930;2024-02-28T23:27:27;9.80;;;6.30;;
75356;SDS011;63946;51.986;5.930;2024-02-28T23:30:01;8.68;;;6.55;;
75356;SDS011;63946;51.986;5.930;2024-02-28T23:32:35;10.23;;;7.13;;
75356;SDS011;63946;51.986;5.930;2024-02-28T23:35:04;10.25;;;6.70;;
75356;SDS011;63946;51.986;5.930;2024-02-28T23:37:51;9.27;;;6.38;;
75356;SDS011;63946;51.986;5.930;2024-02-28T23:40:20;9.60;;;7.32;;
75356;SDS011;63946;51.986;5.930;2024-02-28T23:42:51;12.60;;;6.30;;
75356;SDS011;63946;51.986;5.930;2024-02-28T23:45:30;12.40;;;7.13;;
75356;SDS011;63946;51.986;5.930;2024-02-28T23:48:02;10.10;;;6.75;;
75356;SDS011;63946;51.986;5.930;2024-02-28T23:50:32;13.57;;;6.90;;
75356;SDS011;63946;51.986;5.930;2024-02-28T23:53:02;11.77;;;7.55;;
75356;SDS011;63946;51.986;5.930;2024-02-28T23:55:36;9.75;;;6.78;;
75356;SDS011;63946;51.986;5.930;2024-02-28T23:58:08;11.27;;;7.50;;
